Time;durP1;ratioP1;P1;durP2;ratioP2;P2;SDS_P1;SDS_P2;PMS_P1;PMS_P2;Temp;Humidity;BMP_temperature;BMP_pressure;BME280_temperature;BME280_humidity;BME280_pressure;Samples;Min_cycle;Max_cycle;Signal;HPM_P1;HPM_P2
2022/03/06 00:00:18;;;;;;;19.58;13.07;;;;;;;-0.72;74.06;101473.94;680033;28;1345;-77
2022/03/06 00:00:40;;;;;;;20.17;12.82;;;;;;;-0.69;74.82;101474.09;677167;29;1802;-76
2022/03/06 00:01:01;;;;;;;20.95;13.18;;;;;;;-0.77;75.14;101477.94;676269;29;3480;-76
2022/03/06 00:01:21;;;;;;;21.98;13.38;;;;;;;-0.88;74.86;101476.47;674985;29;4300;-76
2022/03/06 00:01:42;;;;;;;20.77;13.70;;;;;;;-0.96;75.33;101465.78;677782;29;1320;-76
2022/03/06 00:02:03;;;;;;;21.42;13.77;;;;;;;-1.00;76.09;101480.94;677808;28;1603;-76
2022/03/06 00:02:23;;;;;;;20.40;13.80;;;;;;;-1.01;75.83;101479.16;678097;28;1381;-77
2022/03/06 00:02:47;;;;;;;20.43;13.63;;;;;;;-1.03;76.27;101463.69;681804;28;1396;-77
2022/03/06 00:03:13;;;;;;;20.15;12.63;;;;;;;-0.94;76.43;101473.56;681697;28;1441;-77
2022/03/06 00:03:44;;;;;;;20.92;13.00;;;;;;;-0.95;77.88;101461.53;677351;29;4311;-77
2022/03/06 00:04:05;;;;;;;20.48;13.77;;;;;;;-1.03;78.31;101486.78;675152;29;1536;-76
2022/03/06 00:04:25;;;;;;;20.65;14.27;;;;;;;-1.09;76.78;101486.44;674627;28;4330;-76
2022/03/06 00:04:46;;;;;;;19.73;13.13;;;;;;;-1.01;77.53;101449.25;675328;29;2352;-77
2022/03/06 00:05:12;;;;;;;21.17;13.55;;;;;;;-1.03;77.60;101469.69;678879;28;1606;-76
2022/03/06 00:05:35;;;;;;;20.90;13.02;;;;;;;-1.11;78.16;101463.28;680663;28;1507;-77
2022/03/06 00:05:56;;;;;;;21.27;13.52;;;;;;;-1.14;77.95;101491.31;678686;28;1209;-77
2022/03/06 00:06:19;;;;;;;19.50;12.63;;;;;;;-1.15;76.66;101489.56;679855;28;3863;-76
2022/03/06 00:06:40;;;;;;;19.10;12.38;;;;;;;-1.03;76.50;101459.41;681912;28;2024;-77
2022/03/06 00:07:01;;;;;;;19.17;12.45;;;;;;;-0.89;76.03;101457.63;677010;29;3784;-76
2022/03/06 00:07:25;;;;;;;18.58;12.63;;;;;;;-0.93;77.79;101477.91;676005;29;4433;-76
2022/03/06 00:07:46;;;;;;;18.55;13.18;;;;;;;-0.89;77.02;101488.44;679485;28;1534;-78
2022/03/06 00:08:08;;;;;;;18.70;12.35;;;;;;;-0.82;76.28;101478.50;678634;28;1173;-77
2022/03/06 00:08:29;;;;;;;18.92;12.23;;;;;;;-0.80;76.46;101485.47;683134;28;1348;-78
2022/03/06 00:08:50;;;;;;;19.77;12.55;;;;;;;-0.86;76.67;101460.38;683050;28;2132;-76
2022/03/06 00:09:17;;;;;;;18.23;12.20;;;;;;;-0.84;77.06;101462.09;680318;28;2981;-78
2022/03/06 00:09:40;;;;;;;19.25;12.05;;;;;;;-0.89;77.07;101483.31;679353;28;1821;-76
2022/03/06 00:10:04;;;;;;;18.98;12.10;;;;;;;-0.87;75.69;101461.16;681252;28;4381;-76
2022/03/06 00:10:26;;;;;;;19.05;13.10;;;;;;;-0.91;76.24;101463.47;680520;28;4320;-77
2022/03/06 00:10:47;;;;;;;19.10;12.27;;;;;;;-0.87;75.54;101474.00;679328;28;1382;-76
2022/03/06 00:11:10;;;;;;;20.15;11.93;;;;;;;-0.83;75.33;101469.91;677878;28;1263;-76
2022/03/06 00:11:31;;;;;;;19.15;12.10;;;;;;;-0.74;75.52;101462.69;679031;28;1486;-76
2022/03/06 00:11:54;;;;;;;18.30;11.75;;;;;;;-0.64;75.52;101474.34;678986;28;1525;-76
2022/03/06 00:12:22;;;;;;;19.33;11.75;;;;;;;-0.77;75.57;101485.66;678876;28;3629;-76
2022/03/06 00:12:42;;;;;;;17.85;12.15;;;;;;;-0.92;76.89;101454.00;679260;28;1729;-77
2022/03/06 00:13:03;;;;;;;18.00;12.07;;;;;;;-1.00;77.39;101471.53;680963;28;2499;-77
2022/03/06 00:13:24;;;;;;;17.77;12.13;;;;;;;-1.06;77.36;101466.97;680863;28;4275;-76
2022/03/06 00:13:45;;;;;;;18.85;12.43;;;;;;;-1.16;77.65;101490.34;679125;29;1114;-77
2022/03/06 00:14:06;;;;;;;18.80;12.18;;;;;;;-1.26;79.26;101464.97;678443;28;1802;-76
2022/03/06 00:14:27;;;;;;;18.52;12.10;;;;;;;-1.41;78.22;101460.75;681400;28;1222;-77
2022/03/06 00:15:03;;;;;;;17.73;12.07;;;;;;;-1.44;78.89;101467.38;675536;29;1242;-77
2022/03/06 00:15:26;;;;;;;18.27;12.40;;;;;;;-1.40;78.34;101493.31;678420;28;4309;-76
2022/03/06 00:15:46;;;;;;;17.73;12.13;;;;;;;-1.29;77.99;101473.38;680450;28;1565;-77
2022/03/06 00:16:27;;;;;;;17.35;12.02;;;;;;;-1.12;77.55;101476.00;680260;28;1837;-76
2022/03/06 00:16:57;;;;;;;17.70;11.82;;;;;;;-1.18;77.34;101501.31;685865;28;4801;-77
2022/03/06 00:17:24;;;;;;;16.73;11.90;;;;;;;-1.15;76.98;101471.59;682617;28;1604;-76
2022/03/06 00:17:45;;;;;;;19.10;12.15;;;;;;;-1.09;75.66;101495.03;680898;28;1516;-76
2022/03/06 00:18:05;;;;;;;19.03;11.93;;;;;;;-1.07;78.01;101456.59;678089;28;1914;-76
2022/03/06 00:18:26;;;;;;;18.93;11.80;;;;;;;-1.13;78.77;101479.38;679656;28;1359;-76
2022/03/06 00:18:49;;;;;;;17.80;12.15;;;;;;;-1.16;78.65;101468.91;682615;28;3349;-76
2022/03/06 00:19:32;;;;;;;18.93;12.50;;;;;;;-1.27;78.85;101481.19;681466;28;2004;-76
2022/03/06 00:19:53;;;;;;;19.48;12.30;;;;;;;-1.32;78.31;101457.81;682022;28;6249;-77
2022/03/06 00:20:21;;;;;;;17.63;11.52;;;;;;;-1.21;78.20;101481.50;678005;29;1494;-76
2022/03/06 00:20:42;;;;;;;18.30;11.40;;;;;;;-1.16;77.88;101457.00;678766;29;1378;-77
2022/03/06 00:21:04;;;;;;;18.30;11.38;;;;;;;-1.01;77.22;101484.28;675343;29;3505;-76
2022/03/06 00:21:25;;;;;;;18.10;11.88;;;;;;;-1.04;78.22;101455.09;674610;29;2239;-76
2022/03/06 00:21:46;;;;;;;18.20;12.10;;;;;;;-1.11;78.67;101490.59;674165;29;1987;-76
2022/03/06 00:22:07;;;;;;;18.58;11.98;;;;;;;-1.18;78.41;101466.28;673414;29;1643;-76
2022/03/06 00:22:27;;;;;;;18.55;12.07;;;;;;;-1.24;77.88;101471.94;673120;29;4311;-78
2022/03/06 00:22:55;;;;;;;18.52;12.73;;;;;;;-1.32;78.97;101480.03;677301;29;1452;-76
2022/03/06 00:23:20;;;;;;;18.05;12.48;;;;;;;-1.41;79.31;101460.75;677734;29;1652;-77
2022/03/06 00:23:41;;;;;;;18.90;12.27;;;;;;;-1.46;78.72;101474.09;678464;29;913;-76
2022/03/06 00:24:05;;;;;;;18.55;11.80;;;;;;;-1.42;79.61;101458.09;678112;28;3276;-76
2022/03/06 00:24:26;;;;;;;19.08;11.88;;;;;;;-1.47;81.20;101493.72;676690;28;1703;-76
2022/03/06 00:24:57;;;;;;;19.30;12.63;;;;;;;-1.53;80.91;101462.59;677433;29;3502;-76
2022/03/06 00:25:24;;;;;;;18.35;12.25;;;;;;;-1.60;80.74;101475.88;678037;28;4356;-76
2022/03/06 00:25:48;;;;;;;19.15;12.10;;;;;;;-1.56;80.20;101477.81;681148;28;1410;-77
2022/03/06 00:26:09;;;;;;;18.92;11.80;;;;;;;-1.38;79.51;101465.16;678471;28;1200;-77
2022/03/06 00:26:30;;;;;;;18.23;12.25;;;;;;;-1.45;81.84;101451.09;679843;28;1320;-76
2022/03/06 00:26:51;;;;;;;19.73;12.70;;;;;;;-1.49;81.13;101474.81;679011;29;1523;-76
2022/03/06 00:27:16;;;;;;;18.92;12.45;;;;;;;-1.52;80.85;101454.13;681803;28;3743;-77
2022/03/06 00:27:37;;;;;;;20.90;12.73;;;;;;;-1.51;79.54;101460.13;678332;28;3588;-76
2022/03/06 00:28:05;;;;;;;20.33;12.40;;;;;;;-1.31;78.65;101451.88;677945;28;1758;-76
2022/03/06 00:28:30;;;;;;;19.33;12.25;;;;;;;-1.19;79.13;101459.41;675887;28;4334;-77
2022/03/06 00:28:50;;;;;;;18.88;12.73;;;;;;;-1.25;79.23;101451.34;681868;28;1922;-76
2022/03/06 00:29:14;;;;;;;19.50;12.67;;;;;;;-1.34;79.05;101456.84;682154;28;1189;-76
2022/03/06 00:29:35;;;;;;;19.60;12.88;;;;;;;-1.38;78.81;101478.00;683417;28;1386;-77
2022/03/06 00:29:59;;;;;;;18.35;12.10;;;;;;;-1.38;79.43;101468.59;678229;28;3602;-77
2022/03/06 00:30:34;;;;;;;17.63;12.05;;;;;;;-1.48;80.18;101453.50;681395;28;1375;-76
2022/03/06 00:31:03;;;;;;;18.98;12.30;;;;;;;-1.55;79.91;101469.34;681098;28;3771;-77
2022/03/06 00:31:27;;;;;;;18.63;12.18;;;;;;;-1.44;80.22;101478.53;669179;28;4389;-76
2022/03/06 00:31:48;;;;;;;19.15;12.40;;;;;;;-1.35;80.48;101488.44;679252;28;1320;-77
2022/03/06 00:32:08;;;;;;;18.27;12.50;;;;;;;-1.41;80.33;101478.69;676943;28;1490;-76
2022/03/06 00:32:29;;;;;;;18.40;12.20;;;;;;;-1.51;80.35;101473.81;677567;29;1373;-78
2022/03/06 00:32:50;;;;;;;20.20;13.03;;;;;;;-1.53;79.30;101461.75;678784;28;1602;-76
2022/03/06 00:33:13;;;;;;;19.23;12.60;;;;;;;-1.49;79.04;101463.69;674140;29;2629;-77
2022/03/06 00:33:37;;;;;;;18.50;12.57;;;;;;;-1.37;80.11;101487.47;678406;28;1261;-76
2022/03/06 00:33:57;;;;;;;19.50;12.63;;;;;;;-1.41;81.08;101463.31;678180;28;1398;-77
2022/03/06 00:34:21;;;;;;;19.77;12.53;;;;;;;-1.49;81.32;101500.47;680242;28;4306;-78
2022/03/06 00:34:42;;;;;;;19.23;13.30;;;;;;;-1.57;80.41;101456.41;678583;28;1396;-76
2022/03/06 00:35:03;;;;;;;18.80;12.48;;;;;;;-1.63;80.21;101465.47;678638;28;1722;-76
2022/03/06 00:35:28;;;;;;;18.95;12.45;;;;;;;-1.58;79.66;101453.75;676423;28;1293;-76
2022/03/06 00:35:48;;;;;;;17.52;11.93;;;;;;;-1.38;80.45;101458.34;678126;29;1099;-76
2022/03/06 00:36:09;;;;;;;18.33;12.07;;;;;;;-1.47;81.62;101462.94;677615;28;2105;-77
2022/03/06 00:36:33;;;;;;;19.50;12.43;;;;;;;-1.57;80.98;101460.66;680482;28;1330;-76
2022/03/06 00:36:53;;;;;;;19.70;12.43;;;;;;;-1.60;80.03;101465.63;676502;28;1978;-76
2022/03/06 00:37:15;;;;;;;18.85;12.20;;;;;;;-1.63;81.09;101452.63;675967;29;1248;-76
2022/03/06 00:37:36;;;;;;;19.25;12.70;;;;;;;-1.68;81.21;101466.88;680322;28;4953;-77
2022/03/06 00:37:57;;;;;;;18.88;12.25;;;;;;;-1.73;80.87;101480.31;680371;28;1376;-77
2022/03/06 00:38:20;;;;;;;20.10;12.64;;;;;;;-1.76;81.31;101463.84;680019;28;1604;-76
2022/03/06 00:38:44;;;;;;;19.53;12.47;;;;;;;-1.75;82.03;101478.44;678800;28;946;-76
2022/03/06 00:39:10;;;;;;;18.60;12.22;;;;;;;-1.76;82.23;101454.50;678922;28;3942;-76
2022/03/06 00:39:37;;;;;;;18.35;12.13;;;;;;;-1.75;82.13;101457.94;673739;29;1302;-76
2022/03/06 00:40:12;;;;;;;20.02;12.85;;;;;;;-1.67;82.17;101481.47;676152;29;1272;-77
2022/03/06 00:40:33;;;;;;;20.30;12.70;;;;;;;-1.73;82.27;101452.09;680109;28;4360;-75
2022/03/06 00:40:54;;;;;;;19.73;12.30;;;;;;;-1.77;82.01;101468.09;682568;28;1251;-75
2022/03/06 00:41:15;;;;;;;19.45;12.40;;;;;;;-1.81;81.64;101475.53;682794;28;1269;-76
2022/03/06 00:41:51;;;;;;;18.52;12.13;;;;;;;-1.54;80.27;101486.47;682169;28;1319;-77
2022/03/06 00:42:32;;;;;;;19.08;12.35;;;;;;;-1.50;82.31;101491.00;679860;28;4618;-76
2022/03/06 00:42:53;;;;;;;19.40;12.60;;;;;;;-1.61;82.06;101476.66;681358;28;1375;-76
2022/03/06 00:43:17;;;;;;;18.02;12.15;;;;;;;-1.65;81.50;101492.66;679711;28;1301;-76
2022/03/06 00:43:42;;;;;;;19.65;12.88;;;;;;;-1.70;81.95;101477.03;674754;29;4660;-77
2022/03/06 00:44:05;;;;;;;20.00;12.55;;;;;;;-1.76;82.15;101469.88;676330;29;1343;-76
2022/03/06 00:44:29;;;;;;;19.77;12.27;;;;;;;-1.76;82.03;101462.19;673754;29;1066;-76
2022/03/06 00:44:50;;;;;;;19.17;12.27;;;;;;;-1.81;82.31;101470.41;679586;28;3731;-76
2022/03/06 00:45:17;;;;;;;19.40;12.05;;;;;;;-1.86;82.05;101461.56;677580;28;4270;-76
2022/03/06 00:45:41;;;;;;;20.13;12.55;;;;;;;-1.87;82.58;101470.91;681355;28;1890;-76
2022/03/06 00:46:02;;;;;;;21.00;12.68;;;;;;;-1.81;82.43;101485.78;681206;28;958;-76
2022/03/06 00:46:23;;;;;;;18.88;12.32;;;;;;;-1.77;83.01;101483.47;677415;28;4310;-76
2022/03/06 00:46:53;;;;;;;19.42;12.27;;;;;;;-1.78;82.12;101468.88;680266;28;1221;-76
2022/03/06 00:47:37;;;;;;;19.05;12.20;;;;;;;-1.63;82.64;101465.47;678750;28;1051;-76
2022/03/06 00:47:57;;;;;;;18.70;12.70;;;;;;;-1.69;83.14;101471.09;677503;28;4164;-76
2022/03/06 00:48:20;;;;;;;19.98;12.40;;;;;;;-1.70;83.11;101487.28;678041;28;3946;-76
2022/03/06 00:48:41;;;;;;;19.40;12.43;;;;;;;-1.64;82.66;101479.06;675116;29;1465;-75
2022/03/06 00:49:04;;;;;;;18.75;12.30;;;;;;;-1.52;82.83;101476.31;674575;29;1946;-76
2022/03/06 00:49:28;;;;;;;19.83;12.00;;;;;;;-1.51;82.29;101468.69;673556;29;4413;-76
2022/03/06 00:49:49;;;;;;;18.77;11.88;;;;;;;-1.28;80.72;101476.84;676314;29;1427;-76
2022/03/06 00:50:20;;;;;;;17.13;11.60;;;;;;;-1.26;80.15;101493.19;677406;29;1411;-76
2022/03/06 00:50:58;;;;;;;18.55;11.65;;;;;;;-1.19;80.75;101467.09;675116;29;2134;-76
2022/03/06 00:51:19;;;;;;;19.65;11.93;;;;;;;-1.23;81.43;101498.50;676412;29;1650;-76
2022/03/06 00:51:40;;;;;;;19.38;11.95;;;;;;;-1.26;81.29;101472.66;678006;28;3493;-76
2022/03/06 00:52:01;;;;;;;19.27;12.10;;;;;;;-1.26;81.10;101496.66;678602;28;1261;-76
2022/03/06 00:52:28;;;;;;;20.38;12.38;;;;;;;-1.23;80.94;101477.97;680691;28;4328;-76
2022/03/06 00:52:52;;;;;;;21.45;12.27;;;;;;;-1.23;81.17;101465.16;676204;29;1309;-75
2022/03/06 00:53:13;;;;;;;19.20;11.80;;;;;;;-1.31;80.24;101485.22;679224;28;1499;-76
2022/03/06 00:53:37;;;;;;;19.63;12.10;;;;;;;-1.37;80.00;101451.56;678143;29;1329;-76
2022/03/06 00:53:58;;;;;;;18.33;12.07;;;;;;;-1.39;79.69;101499.31;679637;28;3813;-76
2022/03/06 00:54:28;;;;;;;18.90;11.63;;;;;;;-1.45;81.31;101487.00;682109;28;1454;-76
2022/03/06 00:54:54;;;;;;;18.95;12.27;;;;;;;-1.53;81.23;101489.94;676855;29;1301;-76
2022/03/06 00:55:19;;;;;;;18.95;12.05;;;;;;;-1.52;81.65;101504.50;676023;28;4309;-77
2022/03/06 00:55:40;;;;;;;18.05;11.93;;;;;;;-1.49;81.50;101509.84;675865;29;1308;-76
2022/03/06 00:56:09;;;;;;;18.73;12.02;;;;;;;-1.56;82.06;101470.13;673530;29;1246;-76
2022/03/06 00:56:32;;;;;;;19.00;11.98;;;;;;;-1.59;83.02;101482.78;674739;29;1350;-76
2022/03/06 00:57:02;;;;;;;20.55;12.70;;;;;;;-1.60;81.99;101471.63;674796;29;4006;-76
2022/03/06 00:57:23;;;;;;;20.92;12.45;;;;;;;-1.60;82.12;101461.38;673190;29;2508;-77
2022/03/06 00:57:43;;;;;;;19.10;12.10;;;;;;;-1.60;82.65;101488.72;679057;28;1675;-76
2022/03/06 00:58:09;;;;;;;18.55;12.18;;;;;;;-1.66;82.49;101485.75;675723;29;1418;-76
2022/03/06 00:58:32;;;;;;;19.35;12.23;;;;;;;-1.68;82.89;101474.56;679277;28;4422;-76
2022/03/06 00:58:53;;;;;;;19.33;12.27;;;;;;;-1.66;83.27;101486.69;681989;28;1363;-76
2022/03/06 00:59:14;;;;;;;20.40;12.63;;;;;;;-1.73;83.85;101479.41;680976;28;1239;-76
2022/03/06 00:59:35;;;;;;;20.00;12.90;;;;;;;-1.76;83.44;101477.56;680827;28;3608;-76
2022/03/06 00:59:58;;;;;;;17.83;12.18;;;;;;;-1.78;83.45;101481.69;674040;29;4180;-75
2022/03/06 01:00:22;;;;;;;17.05;11.55;;;;;;;-1.78;82.78;101465.44;680680;28;1850;-75
2022/03/06 01:00:46;;;;;;;19.00;12.27;;;;;;;-1.73;82.34;101485.44;681449;28;1554;-75
2022/03/06 01:01:07;;;;;;;18.75;12.60;;;;;;;-1.75;83.01;101465.63;678933;28;1494;-76
2022/03/06 01:01:38;;;;;;;19.52;12.35;;;;;;;-1.74;83.76;101467.41;672112;28;4763;-76
2022/03/06 01:02:06;;;;;;;20.35;12.48;;;;;;;-1.79;84.86;101468.78;679434;28;1307;-77
2022/03/06 01:02:27;;;;;;;21.38;13.10;;;;;;;-1.87;84.62;101486.28;679331;29;1278;-76
2022/03/06 01:02:54;;;;;;;20.83;12.90;;;;;;;-1.86;83.83;101500.88;684143;28;3341;-76
2022/03/06 01:03:32;;;;;;;20.27;12.27;;;;;;;-1.74;84.60;101473.41;680618;28;4167;-76
2022/03/06 01:03:53;;;;;;;18.77;11.90;;;;;;;-1.76;84.50;101492.94;681955;28;1335;-76
2022/03/06 01:04:16;;;;;;;19.27;12.38;;;;;;;-1.71;83.62;101494.06;681191;28;1316;-77
2022/03/06 01:04:37;;;;;;;19.40;12.07;;;;;;;-1.72;83.45;101505.16;678907;28;4633;-76
2022/03/06 01:05:02;;;;;;;19.73;12.35;;;;;;;-1.76;83.44;101482.69;676431;28;1484;-76
2022/03/06 01:05:23;;;;;;;19.23;12.15;;;;;;;-1.72;82.66;101474.38;678711;28;947;-75
2022/03/06 01:05:45;;;;;;;18.88;12.20;;;;;;;-1.64;83.43;101482.50;678741;28;3890;-76
2022/03/06 01:06:05;;;;;;;19.35;12.07;;;;;;;-1.60;82.93;101481.00;679296;28;1395;-76
2022/03/06 01:06:26;;;;;;;19.47;12.03;;;;;;;-1.56;82.15;101500.91;677571;28;1895;-76
2022/03/06 01:06:47;;;;;;;18.40;12.27;;;;;;;-1.58;82.13;101466.59;677897;28;1435;-76
2022/03/06 01:07:08;;;;;;;20.33;12.32;;;;;;;-1.50;81.33;101493.56;679742;28;1524;-76
2022/03/06 01:07:31;;;;;;;18.05;12.10;;;;;;;-1.53;82.01;101493.38;675869;29;4346;-76
2022/03/06 01:07:52;;;;;;;17.98;11.85;;;;;;;-1.56;81.03;101480.41;677265;28;1403;-76
2022/03/06 01:08:18;;;;;;;19.65;11.90;;;;;;;-1.49;80.64;101490.19;678675;28;1541;-76
2022/03/06 01:08:44;;;;;;;19.55;12.35;;;;;;;-1.32;79.47;101496.28;680174;28;3121;-76
2022/03/06 01:09:05;;;;;;;19.50;12.07;;;;;;;-1.25;79.14;101518.03;681111;28;4383;-76
2022/03/06 01:09:26;;;;;;;20.38;12.20;;;;;;;-1.22;78.34;101500.25;682317;28;1755;-76
2022/03/06 01:09:47;;;;;;;19.40;11.80;;;;;;;-1.21;78.07;101473.81;684229;28;1509;-76
2022/03/06 01:10:09;;;;;;;19.93;11.97;;;;;;;-1.18;78.83;101497.06;683305;28;1520;-76
2022/03/06 01:10:30;;;;;;;17.98;12.10;;;;;;;-1.29;81.18;101493.00;683085;28;4395;-76
2022/03/06 01:10:54;;;;;;;18.17;12.02;;;;;;;-1.38;80.58;101468.59;680265;28;1373;-76
2022/03/06 01:11:18;;;;;;;18.33;11.63;;;;;;;-1.43;79.76;101489.66;681235;28;1552;-76
2022/03/06 01:11:41;;;;;;;17.90;11.90;;;;;;;-1.42;80.52;101492.31;682885;28;3199;-76
2022/03/06 01:12:11;;;;;;;18.27;11.57;;;;;;;-1.47;81.71;101469.75;681191;28;1455;-76
2022/03/06 01:12:44;;;;;;;22.10;12.43;;;;;;;-1.53;82.41;101472.88;681501;28;3866;-76
2022/03/06 01:13:07;;;;;;;18.25;12.23;;;;;;;-1.62;82.39;101477.47;679603;28;1658;-75
2022/03/06 01:13:27;;;;;;;20.17;11.90;;;;;;;-1.64;81.97;101495.31;677318;28;4338;-76
2022/03/06 01:13:50;;;;;;;18.85;11.70;;;;;;;-1.68;83.01;101466.88;679790;28;1933;-75
2022/03/06 01:14:14;;;;;;;20.27;12.77;;;;;;;-1.69;83.68;101485.59;681950;28;1377;-75
2022/03/06 01:14:37;;;;;;;18.13;12.48;;;;;;;-1.74;83.13;101499.03;683746;28;3515;-75
2022/03/06 01:15:07;;;;;;;18.83;12.18;;;;;;;-1.70;82.74;101494.97;682521;28;3954;-76
2022/03/06 01:15:28;;;;;;;18.90;12.20;;;;;;;-1.69;82.90;101476.22;682648;28;1467;-76
2022/03/06 01:15:49;;;;;;;20.35;12.25;;;;;;;-1.66;83.08;101490.91;680254;28;1241;-76
2022/03/06 01:16:09;;;;;;;19.52;12.30;;;;;;;-1.66;83.61;101483.19;676798;29;1263;-76
2022/03/06 01:16:32;;;;;;;17.37;11.40;;;;;;;-1.67;82.43;101468.63;676048;29;5933;-76
2022/03/06 01:16:53;;;;;;;18.33;11.98;;;;;;;-1.63;82.98;101501.34;679661;28;1270;-75
2022/03/06 01:17:16;;;;;;;18.20;12.20;;;;;;;-1.58;82.90;101481.97;683360;28;1267;-76
2022/03/06 01:17:37;;;;;;;19.08;12.30;;;;;;;-1.54;83.20;101504.44;680540;28;3402;-75
2022/03/06 01:18:01;;;;;;;20.02;12.15;;;;;;;-1.57;83.43;101478.63;674111;29;4072;-75
2022/03/06 01:18:25;;;;;;;18.83;11.93;;;;;;;-1.57;82.00;101497.44;674788;29;1914;-76
2022/03/06 01:18:55;;;;;;;19.20;12.77;;;;;;;-1.51;81.22;101501.16;681740;28;1372;-76
2022/03/06 01:19:20;;;;;;;20.25;11.93;;;;;;;-1.48;81.65;101481.72;679953;28;4388;-76
2022/03/06 01:20:04;;;;;;;18.90;11.70;;;;;;;-1.50;82.33;101473.03;681900;28;1500;-76
2022/03/06 01:20:34;;;;;;;18.75;12.05;;;;;;;-1.47;81.82;101493.72;684912;28;3354;-76
2022/03/06 01:20:55;;;;;;;19.20;12.15;;;;;;;-1.51;82.62;101496.91;679547;28;3453;-76
2022/03/06 01:21:16;;;;;;;17.43;11.97;;;;;;;-1.55;83.06;101505.25;679949;28;1678;-76
2022/03/06 01:21:39;;;;;;;19.73;12.75;;;;;;;-1.59;82.61;101490.47;681521;28;1596;-76
2022/03/06 01:21:59;;;;;;;20.17;12.40;;;;;;;-1.65;82.21;101482.41;678764;28;1156;-76
2022/03/06 01:22:20;;;;;;;19.48;11.85;;;;;;;-1.67;82.54;101507.09;681836;28;4370;-76
2022/03/06 01:22:53;;;;;;;18.92;11.75;;;;;;;-1.67;83.20;101512.22;682612;28;886;-76
2022/03/06 01:23:14;;;;;;;18.80;12.27;;;;;;;-1.77;83.34;101473.22;681300;28;1590;-76
2022/03/06 01:23:38;;;;;;;20.42;12.40;;;;;;;-1.80;83.87;101482.41;681180;28;3624;-76
2022/03/06 01:23:58;;;;;;;20.70;13.02;;;;;;;-1.89;84.64;101498.13;682888;28;1483;-76
2022/03/06 01:24:19;;;;;;;21.13;13.43;;;;;;;-1.96;85.13;101508.81;678591;28;1472;-76
2022/03/06 01:24:40;;;;;;;21.03;12.67;;;;;;;-2.00;85.03;101484.69;679265;29;1350;-76
2022/03/06 01:25:00;;;;;;;20.63;12.18;;;;;;;-2.02;85.03;101499.09;679079;28;1104;-76
2022/03/06 01:25:21;;;;;;;22.85;13.02;;;;;;;-2.04;85.35;101518.59;675637;28;5604;-76
2022/03/06 01:25:42;;;;;;;21.02;12.65;;;;;;;-2.02;84.59;101482.81;677870;29;1443;-76
2022/03/06 01:26:03;;;;;;;19.02;12.13;;;;;;;-2.03;84.02;101484.50;680657;28;1556;-76
2022/03/06 01:26:26;;;;;;;19.52;12.32;;;;;;;-2.01;83.89;101476.91;682954;28;3402;-75
2022/03/06 01:26:50;;;;;;;19.63;12.20;;;;;;;-2.00;84.12;101487.25;682274;28;1419;-77
2022/03/06 01:27:11;;;;;;;18.83;12.02;;;;;;;-2.00;84.20;101491.50;681668;28;4096;-76
2022/03/06 01:27:31;;;;;;;19.10;12.20;;;;;;;-1.92;84.41;101500.53;681828;28;1271;-75
2022/03/06 01:27:52;;;;;;;18.77;11.93;;;;;;;-1.90;84.74;101517.75;679999;28;1450;-76
2022/03/06 01:28:12;;;;;;;18.65;12.10;;;;;;;-1.91;84.97;101484.31;678193;28;1354;-76
2022/03/06 01:28:36;;;;;;;18.98;11.88;;;;;;;-1.89;84.65;101487.88;676929;29;4298;-76
2022/03/06 01:28:59;;;;;;;18.42;12.18;;;;;;;-1.88;85.44;101490.53;675149;29;1906;-76
2022/03/06 01:29:26;;;;;;;19.00;12.20;;;;;;;-1.93;84.88;101501.31;674139;29;4023;-76
2022/03/06 01:29:52;;;;;;;19.58;12.95;;;;;;;-1.93;84.20;101481.69;677180;28;1646;-76
2022/03/06 01:30:21;;;;;;;19.77;12.18;;;;;;;-1.82;84.14;101495.13;677436;28;4690;-76
2022/03/06 01:30:50;;;;;;;19.38;11.80;;;;;;;-1.76;83.41;101503.19;675046;29;1590;-76
2022/03/06 01:31:11;;;;;;;20.83;12.97;;;;;;;-1.76;83.35;101495.50;679223;28;1247;-76
2022/03/06 01:31:32;;;;;;;20.33;12.73;;;;;;;-1.83;83.45;101507.88;678383;29;4268;-76
2022/03/06 01:31:52;;;;;;;19.38;12.65;;;;;;;-1.89;84.19;101490.44;679555;28;1463;-76
2022/03/06 01:32:13;;;;;;;20.53;12.87;;;;;;;-1.92;84.26;101477.47;676634;29;3164;-76
2022/03/06 01:32:34;;;;;;;18.73;12.13;;;;;;;-1.92;83.44;101498.84;678725;28;1885;-76
2022/03/06 01:32:55;;;;;;;21.17;12.63;;;;;;;-1.89;84.22;101478.50;681005;28;3713;-76
2022/03/06 01:33:16;;;;;;;19.90;12.40;;;;;;;-1.95;84.28;101515.69;682997;28;1324;-76
2022/03/06 01:33:37;;;;;;;18.75;12.30;;;;;;;-2.01;84.78;101507.66;680651;28;1529;-75
2022/03/06 01:34:12;;;;;;;19.88;12.50;;;;;;;-2.03;84.77;101509.25;675423;29;1906;-76
2022/03/06 01:34:33;;;;;;;20.75;13.02;;;;;;;-2.09;85.82;101479.91;676636;28;4239;-76
2022/03/06 01:34:54;;;;;;;20.63;13.13;;;;;;;-2.11;85.36;101506.22;678345;29;1106;-76
2022/03/06 01:35:14;;;;;;;20.87;12.80;;;;;;;-2.15;84.74;101500.00;677289;28;2908;-76
2022/03/06 01:35:35;;;;;;;20.25;12.75;;;;;;;-2.17;85.65;101495.59;681801;28;4040;-75
2022/03/06 01:35:58;;;;;;;21.13;12.93;;;;;;;-2.19;85.95;101494.63;683527;28;1751;-76
2022/03/06 01:36:18;;;;;;;20.48;12.90;;;;;;;-2.24;86.32;101527.66;681899;28;1346;-76
2022/03/06 01:36:39;;;;;;;20.48;13.13;;;;;;;-2.24;85.65;101523.41;680191;28;842;-76
2022/03/06 01:37:03;;;;;;;20.93;12.70;;;;;;;-2.22;85.39;101508.13;680423;28;1171;-76
2022/03/06 01:37:37;;;;;;;19.35;12.50;;;;;;;-2.21;86.30;101519.28;680110;28;4346;-76
2022/03/06 01:37:58;;;;;;;19.42;12.70;;;;;;;-2.23;86.50;101486.75;681838;28;3494;-76
2022/03/06 01:38:19;;;;;;;19.77;12.57;;;;;;;-2.26;86.97;101511.28;683259;28;4320;-76
2022/03/06 01:38:39;;;;;;;20.07;13.37;;;;;;;-2.26;86.51;101496.84;683413;28;1679;-76
2022/03/06 01:39:00;;;;;;;19.45;12.57;;;;;;;-2.23;86.08;101514.94;678040;28;1389;-76
2022/03/06 01:39:20;;;;;;;20.17;12.60;;;;;;;-2.14;85.50;101486.41;680284;28;1202;-77
2022/03/06 01:39:41;;;;;;;19.73;12.07;;;;;;;-2.03;85.58;101483.63;681989;28;1286;-76
2022/03/06 01:40:03;;;;;;;19.38;12.43;;;;;;;-1.95;85.35;101510.56;678015;28;1305;-76
2022/03/06 01:40:24;;;;;;;20.70;12.60;;;;;;;-1.88;85.03;101493.09;680711;28;4332;-76
2022/03/06 01:40:45;;;;;;;18.60;11.80;;;;;;;-1.75;84.83;101481.00;678249;29;3199;-75
2022/03/06 01:41:06;;;;;;;18.87;11.90;;;;;;;-1.78;84.66;101486.81;678366;28;1796;-76
2022/03/06 01:41:33;;;;;;;19.63;12.13;;;;;;;-1.86;84.30;101487.19;678810;28;2586;-75
2022/03/06 01:42:02;;;;;;;19.25;12.10;;;;;;;-1.87;84.19;101504.22;677517;29;1344;-76
2022/03/06 01:42:23;;;;;;;19.67;12.88;;;;;;;-1.91;84.12;101505.75;675562;29;1647;-76
2022/03/06 01:42:45;;;;;;;20.92;13.20;;;;;;;-1.82;83.90;101487.44;676103;29;5073;-75
2022/03/06 01:43:06;;;;;;;20.08;12.88;;;;;;;-1.82;85.45;101495.13;676854;29;1128;-76
2022/03/06 01:43:27;;;;;;;20.23;12.60;;;;;;;-1.78;84.85;101512.47;677134;29;4310;-75
2022/03/06 01:43:47;;;;;;;20.75;12.35;;;;;;;-1.65;84.85;101487.53;679591;28;3945;-76
2022/03/06 01:44:13;;;;;;;18.77;12.13;;;;;;;-1.61;83.67;101515.13;678496;28;4034;-75
2022/03/06 01:44:33;;;;;;;19.08;11.95;;;;;;;-1.57;83.78;101527.34;680051;28;2071;-76
2022/03/06 01:44:54;;;;;;;21.53;12.70;;;;;;;-1.62;84.11;101496.31;678985;28;1711;-76
2022/03/06 01:45:18;;;;;;;21.37;12.70;;;;;;;-1.65;83.75;101490.09;679069;28;1226;-76
2022/03/06 01:45:40;;;;;;;20.38;12.35;;;;;;;-1.68;84.72;101492.50;677059;29;1519;-76
2022/03/06 01:46:16;;;;;;;20.75;12.43;;;;;;;-1.82;84.79;101531.03;676106;29;1210;-76
2022/03/06 01:46:36;;;;;;;20.83;13.00;;;;;;;-1.81;83.44;101512.28;676056;28;4779;-76
2022/03/06 01:46:56;;;;;;;21.17;13.13;;;;;;;-1.72;83.10;101489.75;678144;28;1970;-76
2022/03/06 01:47:43;;;;;;;21.03;13.10;;;;;;;-1.65;84.05;101487.53;683606;28;1579;-76
2022/03/06 01:48:10;;;;;;;20.33;13.00;;;;;;;-1.76;84.02;101494.59;685837;28;1490;-76
2022/03/06 01:48:30;;;;;;;20.73;12.60;;;;;;;-1.68;83.82;101501.06;682858;28;2200;-77
2022/03/06 01:48:51;;;;;;;20.63;12.23;;;;;;;-1.66;84.17;101493.47;687193;28;1910;-76
2022/03/06 01:49:12;;;;;;;20.73;12.17;;;;;;;-1.72;84.69;101491.44;685625;28;1383;-76
2022/03/06 01:49:35;;;;;;;20.23;12.88;;;;;;;-1.80;84.92;101493.56;684388;28;4285;-75
2022/03/06 01:49:56;;;;;;;19.30;12.75;;;;;;;-1.80;84.69;101491.00;681413;28;1803;-76